Time;durP1;ratioP1;P1;durP2;ratioP2;P2;SDS_P1;SDS_P2;PMS_P1;PMS_P2;Temp;Humidity;BMP_temperature;BMP_pressure;BME280_temperature;BME280_humidity;BME280_pressure;Samples;Min_cycle;Max_cycle;Signal;HPM_P1;HPM_P2
2022/10/10 00:01:16;;;;;;;10.32;4.95;;;11.30;99.90;;;;;;4990983;28;20034;-78
2022/10/10 00:03:43;;;;;;;11.00;5.50;;;11.30;99.90;;;;;;4990620;28;20034;-78
2022/10/10 00:06:11;;;;;;;3.95;2.17;;;11.50;99.90;;;;;;4990682;28;20085;-78
2022/10/10 00:08:37;;;;;;;3.20;2.13;;;11.30;99.90;;;;;;4990478;28;20056;-78
2022/10/10 00:11:04;;;;;;;3.00;1.65;;;11.20;99.90;;;;;;4974544;28;20129;-78
2022/10/10 00:13:31;;;;;;;3.75;1.48;;;11.10;99.90;;;;;;4990381;28;20037;-78
2022/10/10 00:15:57;;;;;;;4.22;2.00;;;11.10;99.90;;;;;;4990598;28;20085;-78
2022/10/10 00:18:23;;;;;;;4.65;1.80;;;11.00;99.90;;;;;;4990538;28;20076;-78
2022/10/10 00:20:52;;;;;;;4.75;2.10;;;11.00;99.90;;;;;;4991859;28;20062;-78
2022/10/10 00:23:18;;;;;;;3.40;1.83;;;10.90;99.90;;;;;;4991377;28;20030;-78
2022/10/10 00:25:44;;;;;;;3.92;1.70;;;10.90;99.90;;;;;;4990473;28;20038;-78
2022/10/10 00:28:11;;;;;;;3.63;1.77;;;10.90;99.90;;;;;;4990437;28;20489;-78
2022/10/10 00:30:38;;;;;;;3.38;2.15;;;10.80;99.90;;;;;;4990270;28;20034;-78
2022/10/10 00:33:04;;;;;;;4.07;2.03;;;10.70;99.90;;;;;;4991429;28;20517;-78
2022/10/10 00:35:30;;;;;;;3.20;1.30;;;10.60;99.90;;;;;;4990628;28;20042;-78
2022/10/10 00:37:55;;;;;;;5.63;1.60;;;10.20;99.90;;;;;;4991507;28;20390;-78
2022/10/10 00:40:22;;;;;;;6.53;2.25;;;10.00;99.90;;;;;;4991568;28;20113;-78
2022/10/10 00:42:48;;;;;;;3.53;2.28;;;10.20;99.90;;;;;;4991124;28;20042;-79
2022/10/10 00:45:23;;;;;;;8.77;2.17;;;10.10;99.90;;;;;;4990316;28;20441;-78
2022/10/10 00:47:50;;;;;;;5.18;1.42;;;9.90;99.90;;;;;;4991579;28;20053;-78
2022/10/10 00:50:18;;;;;;;4.45;1.88;;;9.70;99.90;;;;;;4991264;28;20605;-78
2022/10/10 00:52:44;;;;;;;10.07;2.00;;;9.70;99.90;;;;;;4994735;28;20034;-78
2022/10/10 00:55:11;;;;;;;4.22;2.13;;;9.80;99.90;;;;;;4994513;28;20487;-78
2022/10/10 00:57:37;;;;;;;5.07;1.90;;;9.90;99.90;;;;;;4995265;28;20529;-78
2022/10/10 01:00:04;;;;;;;3.30;1.90;;;10.00;99.90;;;;;;4994090;28;20052;-78
2022/10/10 01:02:30;;;;;;;5.03;2.28;;;10.00;99.90;;;;;;4993555;28;20023;-79
2022/10/10 01:04:55;;;;;;;2.50;1.55;;;10.00;99.90;;;;;;4994922;28;20033;-78
2022/10/10 01:07:26;;;;;;;8.05;1.50;;;9.80;99.90;;;;;;4995695;28;20025;-78
2022/10/10 01:09:55;;;;;;;2.72;2.20;;;9.80;99.90;;;;;;5002095;28;20054;-78
2022/10/10 01:12:43;;;;;;;4.32;1.98;;;9.40;99.90;;;;;;5009668;28;20025;-78
2022/10/10 01:15:22;;;;;;;6.57;2.40;;;9.30;99.90;;;;;;5010129;28;20084;-78
2022/10/10 01:18:13;;;;;;;24.60;2.90;;;9.30;99.90;;;;;;4993821;28;20030;-78
2022/10/10 01:20:51;;;;;;;2.75;1.77;;;9.10;99.90;;;;;;4995258;28;20609;-78
2022/10/10 01:23:48;;;;;;;8.10;2.08;;;9.20;99.90;;;;;;4995613;28;20585;-78
2022/10/10 01:26:48;;;;;;;3.50;1.90;;;9.10;99.90;;;;;;5014268;28;20493;-78
2022/10/10 01:29:37;;;;;;;2.55;1.48;;;8.90;99.90;;;;;;5013171;28;20040;-78
2022/10/10 01:32:21;;;;;;;10.15;2.60;;;8.90;99.90;;;;;;4997909;28;20046;-78
2022/10/10 01:35:50;;;;;;;2.13;1.50;;;9.00;99.90;;;;;;5013125;28;20184;-78
2022/10/10 01:38:28;;;;;;;7.18;2.00;;;9.10;99.90;;;;;;5013841;28;20084;-78
2022/10/10 01:41:15;;;;;;;1.90;1.20;;;9.10;99.90;;;;;;5008526;28;20552;-78
2022/10/10 01:43:41;;;;;;;2.95;1.48;;;9.20;99.90;;;;;;4993063;28;20031;-78
2022/10/10 01:46:17;;;;;;;3.10;1.67;;;9.30;99.90;;;;;;4992892;28;20483;-78
2022/10/10 01:48:48;;;;;;;2.63;2.05;;;9.30;99.90;;;;;;4993040;28;20383;-78
2022/10/10 01:51:57;;;;;;;;;;;9.30;99.90;;;;;;4993788;28;20030;-78
2022/10/10 01:55:12;;;;;;;2.63;1.50;;;9.30;99.90;;;;;;4993058;28;19917;-78
2022/10/10 01:58:32;;;;;;;9.30;2.35;;;9.10;99.90;;;;;;4993131;28;20046;-78
2022/10/10 02:01:33;;;;;;;9.00;2.25;;;9.00;99.90;;;;;;4994033;28;20524;-78
2022/10/10 02:04:08;;;;;;;3.70;2.08;;;9.00;99.90;;;;;;4992493;28;20046;-78
2022/10/10 02:06:49;;;;;;;4.47;2.10;;;8.90;99.90;;;;;;4992511;28;20082;-78
2022/10/10 02:09:26;;;;;;;3.80;1.63;;;8.90;99.90;;;;;;5005549;23;20149;-67
2022/10/10 02:11:53;;;;;;;2.45;1.33;;;8.80;99.90;;;;;;4994311;28;20090;-67
2022/10/10 02:14:30;;;;;;;4.25;2.20;;;8.70;99.90;;;;;;4988486;28;20022;-67
2022/10/10 02:16:59;;;;;;;11.10;1.63;;;8.70;99.90;;;;;;4969565;28;20513;-67
2022/10/10 02:19:26;;;;;;;5.13;1.58;;;8.70;99.90;;;;;;4969429;28;20498;-67
2022/10/10 02:21:54;;;;;;;7.32;2.30;;;8.80;99.90;;;;;;4953962;29;20039;-67
2022/10/10 02:24:23;;;;;;;5.40;1.90;;;8.70;99.90;;;;;;4954726;28;20043;-67
2022/10/10 02:27:02;;;;;;;5.57;1.90;;;8.70;99.90;;;;;;4972920;28;20026;-67
2022/10/10 02:29:33;;;;;;;3.95;1.95;;;8.70;99.90;;;;;;4972940;28;20031;-67
2022/10/10 02:32:23;;;;;;;2.95;1.65;;;8.50;99.90;;;;;;4973040;28;20502;-67
2022/10/10 02:34:54;;;;;;;3.65;2.20;;;8.60;99.90;;;;;;4972800;28;20038;-67
2022/10/10 02:37:22;;;;;;;2.80;1.70;;;8.70;99.90;;;;;;4972805;28;20439;-67
2022/10/10 02:39:55;;;;;;;2.53;1.63;;;8.60;99.90;;;;;;4973063;28;20027;-67
2022/10/10 02:42:22;;;;;;;5.10;1.88;;;8.70;99.90;;;;;;4972523;28;20047;-67
2022/10/10 02:44:49;;;;;;;4.65;2.15;;;8.60;99.90;;;;;;4972626;28;20034;-67
2022/10/10 02:47:14;;;;;;;6.82;1.75;;;8.40;99.90;;;;;;4972474;28;20372;-67
2022/10/10 02:49:41;;;;;;;2.28;1.95;;;8.30;99.90;;;;;;4972224;28;20038;-67
2022/10/10 02:52:07;;;;;;;3.70;1.70;;;8.30;99.90;;;;;;4972522;28;20022;-67
2022/10/10 02:54:33;;;;;;;2.95;1.77;;;8.50;99.90;;;;;;4972245;28;20097;-67
2022/10/10 02:56:58;;;;;;;3.03;1.98;;;8.50;99.90;;;;;;4973798;28;20042;-67
2022/10/10 02:59:24;;;;;;;4.88;2.03;;;8.50;99.90;;;;;;4972217;28;20039;-67
2022/10/10 03:01:50;;;;;;;3.97;2.22;;;8.60;99.90;;;;;;4972219;28;20038;-67
2022/10/10 03:04:16;;;;;;;3.92;2.00;;;8.50;99.90;;;;;;4973131;28;20027;-67
2022/10/10 03:06:42;;;;;;;4.82;2.30;;;8.50;99.90;;;;;;4972283;28;20038;-67
2022/10/10 03:09:08;;;;;;;3.85;1.85;;;8.60;99.90;;;;;;4972950;28;20045;-67
2022/10/10 03:11:34;;;;;;;3.13;1.60;;;8.70;99.90;;;;;;4972201;28;20494;-67
2022/10/10 03:13:59;;;;;;;7.28;3.67;;;8.80;99.90;;;;;;4972558;28;20435;-67
2022/10/10 03:16:25;;;;;;;8.80;1.85;;;8.70;99.90;;;;;;4990008;28;20038;-67
2022/10/10 03:18:51;;;;;;;3.22;1.75;;;8.70;99.90;;;;;;4992493;28;20080;-67
2022/10/10 03:21:17;;;;;;;3.63;2.05;;;8.70;99.90;;;;;;4991461;28;20030;-67
2022/10/10 03:23:43;;;;;;;6.30;1.95;;;8.70;99.90;;;;;;4992091;28;20121;-67
2022/10/10 03:26:08;;;;;;;4.13;2.10;;;8.70;99.90;;;;;;4992563;28;20022;-67
2022/10/10 03:28:36;;;;;;;6.10;2.28;;;8.70;99.90;;;;;;4992416;28;20108;-67
2022/10/10 03:31:03;;;;;;;9.75;2.15;;;8.70;99.90;;;;;;4991247;28;20490;-67
2022/10/10 03:33:28;;;;;;;5.63;2.55;;;8.80;99.90;;;;;;4991931;28;20037;-67
2022/10/10 03:35:54;;;;;;;3.17;1.98;;;8.90;99.90;;;;;;4992159;28;20034;-67
2022/10/10 03:38:20;;;;;;;4.22;1.85;;;8.90;99.90;;;;;;4992209;28;20034;-67
2022/10/10 03:40:46;;;;;;;2.63;1.70;;;9.00;99.90;;;;;;4992474;28;20034;-67
2022/10/10 03:43:13;;;;;;;3.85;1.67;;;9.00;99.90;;;;;;4990548;28;20030;-67
2022/10/10 03:45:44;;;;;;;5.28;1.90;;;8.90;99.90;;;;;;4992116;28;20172;-67
2022/10/10 03:48:10;;;;;;;9.13;2.70;;;8.70;99.90;;;;;;4992180;28;20541;-67
2022/10/10 03:50:37;;;;;;;7.50;1.70;;;8.70;99.90;;;;;;4991963;28;20478;-67
2022/10/10 03:53:03;;;;;;;3.50;2.10;;;8.70;99.90;;;;;;4991904;28;20534;-67
2022/10/10 03:55:29;;;;;;;11.68;3.50;;;8.70;99.90;;;;;;4975188;28;20062;-68
2022/10/10 03:57:54;;;;;;;4.53;2.35;;;8.50;99.90;;;;;;4972522;28;20636;-67
2022/10/10 04:00:20;;;;;;;15.27;2.17;;;8.40;99.90;;;;;;4948961;28;20049;-67
2022/10/10 04:02:46;;;;;;;6.22;1.80;;;8.60;99.90;;;;;;4965052;28;20066;-67
2022/10/10 04:05:12;;;;;;;8.30;2.15;;;8.60;99.90;;;;;;4966333;28;20035;-66
2022/10/10 04:07:37;;;;;;;4.72;2.05;;;8.70;99.90;;;;;;4966811;28;20109;-67
2022/10/10 04:10:05;;;;;;;8.60;2.28;;;8.80;99.90;;;;;;4969818;28;20038;-67
2022/10/10 04:12:30;;;;;;;4.30;2.03;;;8.80;99.90;;;;;;4972023;28;20192;-70
2022/10/10 04:14:56;;;;;;;4.30;1.92;;;8.80;99.90;;;;;;4976853;28;20352;-68
2022/10/10 04:17:21;;;;;;;4.32;1.92;;;8.60;99.90;;;;;;4991281;28;20141;-68
2022/10/10 04:19:47;;;;;;;3.78;2.17;;;8.50;99.90;;;;;;4990044;28;20026;-68
2022/10/10 04:22:13;;;;;;;3.58;1.55;;;8.40;99.90;;;;;;4991619;28;20034;-68
2022/10/10 04:24:39;;;;;;;5.18;2.10;;;8.40;99.90;;;;;;4991016;28;20481;-67
2022/10/10 04:27:04;;;;;;;2.78;1.50;;;8.40;99.90;;;;;;4990615;28;20030;-67
2022/10/10 04:29:30;;;;;;;3.40;1.95;;;8.50;99.90;;;;;;4991380;28;20026;-67
2022/10/10 04:31:56;;;;;;;6.72;2.40;;;8.50;99.90;;;;;;4983720;28;20031;-68
2022/10/10 04:34:21;;;;;;;3.25;2.28;;;8.60;99.90;;;;;;4971965;28;20031;-69
2022/10/10 04:36:50;;;;;;;3.97;2.47;;;8.60;99.90;;;;;;4972129;28;20108;-69
2022/10/10 04:39:16;;;;;;;6.90;2.53;;;8.70;99.90;;;;;;4968023;28;20038;-69
2022/10/10 04:41:41;;;;;;;3.22;2.20;;;8.70;99.90;;;;;;4970375;28;20026;-68
2022/10/10 04:44:07;;;;;;;2.67;1.95;;;8.60;99.90;;;;;;4971332;28;20345;-67
2022/10/10 04:46:33;;;;;;;6.30;2.88;;;8.60;99.90;;;;;;4968905;28;20074;-68
2022/10/10 04:48:58;;;;;;;6.78;2.33;;;8.50;99.90;;;;;;4971316;28;20471;-67
2022/10/10 04:51:24;;;;;;;23.23;6.47;;;8.60;99.90;;;;;;4971535;28;20387;-68
2022/10/10 04:53:49;;;;;;;6.25;2.70;;;8.70;99.90;;;;;;4946751;28;20118;-67
2022/10/10 04:56:15;;;;;;;10.55;3.60;;;8.70;99.90;;;;;;4974215;28;20046;-68
2022/10/10 04:58:41;;;;;;;4.45;2.53;;;8.40;99.90;;;;;;4990695;28;20033;-68
2022/10/10 05:01:07;;;;;;;15.05;4.82;;;8.20;99.90;;;;;;4989633;28;20026;-67
2022/10/10 05:03:32;;;;;;;21.15;3.72;;;8.10;99.90;;;;;;4990831;28;20176;-68
2022/10/10 05:05:58;;;;;;;24.25;5.30;;;8.10;99.90;;;;;;5005305;28;20038;-68
2022/10/10 05:08:24;;;;;;;48.05;19.77;;;8.30;99.90;;;;;;4990763;28;20037;-68
2022/10/10 05:10:52;;;;;;;20.67;4.07;;;8.30;99.90;;;;;;4990495;28;20042;-68
2022/10/10 05:13:18;;;;;;;5.25;3.05;;;8.20;99.90;;;;;;4990449;28;20048;-68
2022/10/10 05:15:44;;;;;;;4.07;2.45;;;8.20;99.90;;;;;;5001505;28;20537;-68
2022/10/10 05:18:10;;;;;;;10.77;2.85;;;8.30;99.90;;;;;;4994261;28;20030;-67
2022/10/10 05:20:35;;;;;;;10.07;2.40;;;8.30;99.90;;;;;;4990590;28;20038;-67
2022/10/10 05:23:02;;;;;;;4.80;2.60;;;8.40;99.90;;;;;;4990489;28;20030;-67
2022/10/10 05:25:28;;;;;;;7.40;2.83;;;8.40;99.90;;;;;;4990615;28;20121;-68
2022/10/10 05:27:54;;;;;;;4.13;2.42;;;8.40;99.90;;;;;;4990225;28;20117;-68
2022/10/10 05:30:20;;;;;;;7.35;2.85;;;8.40;99.90;;;;;;4990363;28;20434;-67
2022/10/10 05:32:45;;;;;;;6.68;2.80;;;8.40;99.90;;;;;;4989988;28;20387;-69
2022/10/10 05:35:11;;;;;;;30.83;14.20;;;8.50;99.90;;;;;;4989207;28;20030;-67
2022/10/10 05:37:37;;;;;;;9.18;4.88;;;8.50;99.90;;;;;;4992498;28;20026;-67
2022/10/10 05:40:04;;;;;;;5.00;2.55;;;8.50;99.90;;;;;;4993713;28;20041;-67
2022/10/10 05:42:30;;;;;;;4.70;2.33;;;8.60;99.90;;;;;;4992633;28;20030;-68
2022/10/10 05:44:55;;;;;;;9.38;2.85;;;8.60;99.90;;;;;;4993704;28;20057;-67
2022/10/10 05:47:22;;;;;;;5.60;3.05;;;8.60;99.90;;;;;;4993993;28;20076;-68
2022/10/10 05:49:48;;;;;;;4.97;2.95;;;8.70;99.90;;;;;;4992484;28;20079;-67
2022/10/10 05:52:14;;;;;;;10.75;3.92;;;8.70;99.90;;;;;;4993583;28;20054;-68
2022/10/10 05:54:39;;;;;;;6.72;2.67;;;8.80;99.90;;;;;;4993784;28;20034;-68
2022/10/10 05:57:05;;;;;;;4.57;2.63;;;8.70;99.90;;;;;;4993998;28;20035;-69
2022/10/10 05:59:31;;;;;;;4.90;1.98;;;8.80;99.90;;;;;;4933654;28;20086;-68
2022/10/10 06:01:56;;;;;;;4.75;2.20;;;8.80;99.90;;;;;;4973161;28;20038;-70
2022/10/10 06:04:23;;;;;;;6.43;2.95;;;8.80;99.90;;;;;;4973733;28;20034;-68
2022/10/10 06:06:49;;;;;;;7.43;2.22;;;8.90;99.90;;;;;;4974220;28;20085;-68
2022/10/10 06:09:16;;;;;;;5.97;2.10;;;9.10;99.90;;;;;;4972552;28;20129;-69
2022/10/10 06:11:42;;;;;;;3.67;2.15;;;9.20;99.90;;;;;;4974333;28;20146;-68
2022/10/10 06:14:09;;;;;;;4.95;1.98;;;9.30;99.90;;;;;;4973152;28;20497;-68
2022/10/10 06:16:35;;;;;;;6.18;2.13;;;9.30;99.90;;;;;;4972893;28;20054;-68
2022/10/10 06:19:02;;;;;;;7.47;2.70;;;9.40;99.90;;;;;;4972639;28;20062;-68
2022/10/10 06:21:28;;;;;;;3.75;2.65;;;9.30;99.90;;;;;;4973604;28;20088;-69
2022/10/10 06:23:54;;;;;;;3.78;2.42;;;9.30;99.90;;;;;;4972274;28;20035;-69
2022/10/10 06:26:19;;;;;;;7.15;3.08;;;9.30;99.90;;;;;;4973733;28;20368;-69
2022/10/10 06:28:45;;;;;;;4.00;2.13;;;9.30;99.90;;;;;;4972323;28;20034;-68
2022/10/10 06:31:12;;;;;;;3.08;1.85;;;9.40;99.90;;;;;;4972408;28;20033;-69
2022/10/10 06:33:42;;;;;;;5.28;3.05;;;9.40;99.90;;;;;;4972281;28;20394;-68
2022/10/10 06:36:07;;;;;;;6.45;3.42;;;9.50;99.90;;;;;;4973694;28;20554;-68
2022/10/10 06:38:38;;;;;;;11.95;5.72;;;9.60;99.90;;;;;;4974011;28;20041;-67
2022/10/10 06:41:05;;;;;;;17.67;3.70;;;9.90;99.90;;;;;;4972468;28;20490;-68
2022/10/10 06:43:32;;;;;;;6.18;2.10;;;10.10;99.90;;;;;;4972930;28;20043;-68
2022/10/10 06:45:58;;;;;;;6.10;2.58;;;9.80;99.90;;;;;;4973334;28;20027;-68
2022/10/10 06:48:25;;;;;;;4.00;2.03;;;9.80;99.90;;;;;;4971513;28;20035;-68
2022/10/10 06:51:06;;;;;;;7.28;2.30;;;9.80;99.90;;;;;;4971681;28;20506;-68
2022/10/10 06:53:32;;;;;;;4.85;2.70;;;10.00;99.90;;;;;;4972209;28;20035;-68
2022/10/10 06:55:58;;;;;;;4.90;2.63;;;9.90;99.90;;;;;;4972186;28;20038;-68
2022/10/10 06:58:27;;;;;;;6.13;1.80;;;9.90;99.90;;;;;;4972049;28;20035;-68
2022/10/10 07:00:55;;;;;;;3.85;1.73;;;10.00;99.90;;;;;;4972864;28;20031;-68
2022/10/10 07:03:21;;;;;;;4.85;2.25;;;9.90;99.90;;;;;;4971540;28;20039;-68
2022/10/10 07:05:57;;;;;;;7.28;2.75;;;10.00;99.90;;;;;;4975480;28;20117;-68
2022/10/10 07:08:24;;;;;;;8.23;2.80;;;10.20;99.90;;;;;;4973152;28;20514;-68
2022/10/10 07:10:50;;;;;;;9.23;2.72;;;10.30;99.90;;;;;;4971347;28;20031;-68
2022/10/10 07:13:16;;;;;;;3.40;2.10;;;10.30;99.90;;;;;;4971477;28;20030;-68
2022/10/10 07:15:42;;;;;;;4.85;2.33;;;10.20;99.90;;;;;;4971567;28;20462;-68
2022/10/10 07:18:09;;;;;;;6.35;2.80;;;10.40;99.90;;;;;;4972827;28;20439;-68
2022/10/10 07:20:36;;;;;;;7.43;2.45;;;10.40;99.90;;;;;;4971603;28;20049;-68
2022/10/10 07:23:03;;;;;;;5.65;2.85;;;10.50;99.90;;;;;;4955125;28;20027;-68
2022/10/10 07:25:29;;;;;;;12.10;3.33;;;10.60;99.90;;;;;;4971492;28;20510;-68
2022/10/10 07:27:55;;;;;;;5.63;2.30;;;10.70;99.90;;;;;;4972677;28;20082;-67
2022/10/10 07:30:24;;;;;;;5.70;2.50;;;10.80;99.90;;;;;;4971167;28;20388;-67
2022/10/10 07:32:54;;;;;;;17.90;4.03;;;10.90;99.90;;;;;;4972338;28;20119;-67
2022/10/10 07:35:20;;;;;;;11.23;4.07;;;10.80;99.90;;;;;;4972569;28;20023;-67
2022/10/10 07:37:46;;;;;;;19.17;2.70;;;10.80;99.90;;;;;;4972617;28;20086;-67
2022/10/10 07:40:12;;;;;;;3.90;2.40;;;10.90;99.90;;;;;;4972218;28;20031;-67
2022/10/10 07:42:38;;;;;;;4.95;2.95;;;11.10;99.90;;;;;;4970971;28;20562;-69
2022/10/10 07:45:05;;;;;;;14.57;3.88;;;11.10;99.90;;;;;;4971485;28;20035;-68
2022/10/10 07:47:31;;;;;;;13.48;4.07;;;11.40;99.90;;;;;;4972082;28;20039;-68
2022/10/10 07:49:56;;;;;;;6.00;2.53;;;11.50;99.90;;;;;;4971201;28;20495;-68
2022/10/10 07:52:22;;;;;;;10.80;3.50;;;11.70;99.90;;;;;;4970712;28;20037;-68
2022/10/10 07:54:48;;;;;;;6.93;3.10;;;11.60;99.90;;;;;;4972281;28;20035;-68
2022/10/10 07:57:13;;;;;;;7.05;2.38;;;11.70;99.90;;;;;;4971777;28;20033;-69
2022/10/10 07:59:39;;;;;;;6.88;3.70;;;11.80;99.90;;;;;;4972212;28;20038;-68
2022/10/10 08:02:05;;;;;;;6.65;4.45;;;11.90;99.90;;;;;;4970623;28;20069;-68
2022/10/10 08:04:31;;;;;;;7.97;3.65;;;12.00;99.90;;;;;;4971744;28;20042;-68
2022/10/10 08:06:57;;;;;;;53.13;18.58;;;12.10;99.90;;;;;;4971733;28;20058;-69
2022/10/10 08:09:23;;;;;;;22.20;8.82;;;12.30;99.90;;;;;;4987834;23;20119;-77
2022/10/10 08:11:49;;;;;;;4.72;3.00;;;12.50;99.90;;;;;;4996193;28;20044;-75
2022/10/10 08:14:14;;;;;;;9.25;3.55;;;12.60;99.90;;;;;;4989384;28;20496;-77
2022/10/10 08:16:40;;;;;;;8.27;2.92;;;12.60;99.90;;;;;;4991408;28;20735;-75
2022/10/10 08:19:06;;;;;;;5.05;2.55;;;12.80;99.90;;;;;;4991191;28;20398;-75
2022/10/10 08:21:34;;;;;;;5.18;3.05;;;12.90;99.90;;;;;;4990991;28;20073;-75
2022/10/10 08:24:00;;;;;;;5.43;2.40;;;13.00;99.90;;;;;;4990924;28;20055;-75
2022/10/10 08:26:26;;;;;;;4.85;3.13;;;13.30;99.90;;;;;;4990745;28;20368;-75
2022/10/10 08:28:52;;;;;;;3.83;2.25;;;13.40;99.90;;;;;;4991230;28;20481;-75
2022/10/10 08:31:20;;;;;;;16.20;2.67;;;13.40;99.90;;;;;;4988499;28;20070;-75
2022/10/10 08:33:47;;;;;;;7.60;3.92;;;13.60;99.90;;;;;;4969907;28;20577;-75
2022/10/10 08:36:22;;;;;;;4.25;2.55;;;13.70;99.90;;;;;;4970470;28;20089;-75
2022/10/10 08:38:49;;;;;;;4.45;2.28;;;13.90;99.90;;;;;;4970139;28;20030;-75
2022/10/10 08:41:41;;;;;;;5.78;2.60;;;14.10;99.90;;;;;;4954300;28;20065;-75
2022/10/10 08:44:20;;;;;;;7.85;2.78;;;14.20;99.90;;;;;;4971165;28;20487;-72
2022/10/10 08:47:02;;;;;;;4.05;2.17;;;14.30;99.90;;;;;;4971505;28;20637;-72
2022/10/10 08:49:54;;;;;;;4.43;2.15;;;14.50;99.90;;;;;;4971200;28;20035;-75
2022/10/10 08:53:10;;;;;;;4.97;2.58;;;14.60;99.90;;;;;;4971077;28;20026;-75
2022/10/10 08:55:42;;;;;;;4.35;2.17;;;14.80;99.90;;;;;;4945242;28;20125;-75
2022/10/10 08:58:44;;;;;;;8.48;2.58;;;15.00;99.90;;;;;;4970133;28;20113;-75
2022/10/10 09:01:14;;;;;;;13.75;3.13;;;15.00;99.90;;;;;;4969862;28;20166;-74
2022/10/10 09:03:53;;;;;;;4.70;2.33;;;15.00;99.90;;;;;;4969698;28;20503;-78
2022/10/10 09:06:50;;;;;;;2.80;1.90;;;15.10;99.90;;;;;;4969894;28;20519;-75
2022/10/10 09:09:30;;;;;;;3.35;1.77;;;15.20;99.90;;;;;;4971208;28;20034;-76
2022/10/10 09:12:38;;;;;;;4.17;2.53;;;15.20;99.90;;;;;;4971733;28;20060;-78
2022/10/10 09:15:24;;;;;;;6.97;2.78;;;15.30;99.90;;;;;;4975010;28;20113;-77
2022/10/10 09:18:01;;;;;;;2.70;1.85;;;15.50;99.90;;;;;;4976138;28;20394;-77
2022/10/10 09:20:54;;;;;;;8.55;3.83;;;15.80;99.90;;;;;;4988683;28;20101;-74
2022/10/10 09:23:33;;;;;;;9.38;2.50;;;15.90;99.90;;;;;;4974184;28;20525;-73
2022/10/10 09:26:12;;;;;;;4.10;2.38;;;15.90;99.90;;;;;;4973401;28;20077;-71
2022/10/10 09:29:05;;;;;;;4.38;2.13;;;15.90;99.90;;;;;;4973043;28;20050;-71
2022/10/10 09:31:38;;;;;;;4.10;2.22;;;16.00;99.90;;;;;;4971813;28;20035;-71
2022/10/10 09:34:34;;;;;;;3.45;2.20;;;16.00;99.90;;;;;;4971993;28;20392;-71
2022/10/10 09:37:02;;;;;;;3.70;2.05;;;16.40;99.90;;;;;;4971491;28;20034;-71
2022/10/10 09:39:42;;;;;;;18.27;3.05;;;16.70;99.90;;;;;;4971916;28;20509;-71
2022/10/10 09:42:16;;;;;;;7.33;2.83;;;16.60;99.90;;;;;;4974090;28;20038;-70
2022/10/10 09:44:43;;;;;;;6.00;2.47;;;16.40;99.90;;;;;;4974099;28;20045;-70
2022/10/10 09:47:14;;;;;;;2.58;1.50;;;16.60;99.90;;;;;;4974337;28;20189;-69
2022/10/10 09:49:42;;;;;;;4.30;2.45;;;16.80;99.90;;;;;;4972923;28;20026;-71
2022/10/10 09:52:30;;;;;;;3.75;2.17;;;17.00;99.90;;;;;;4974222;28;20053;-70
2022/10/10 09:55:03;;;;;;;7.45;3.03;;;17.20;99.90;;;;;;4974250;28;20118;-72
2022/10/10 09:57:35;;;;;;;3.17;1.48;;;17.50;99.90;;;;;;4973053;28;20375;-74
2022/10/10 10:00:28;;;;;;;3.15;1.80;;;17.40;99.90;;;;;;4974177;28;20092;-72
2022/10/10 10:03:20;;;;;;;2.65;1.85;;;17.60;99.90;;;;;;4972798;28;20062;-72
2022/10/10 10:05:59;;;;;;;3.47;1.90;;;17.90;99.90;;;;;;4973001;28;20064;-73
2022/10/10 10:08:34;;;;;;;10.15;3.22;;;18.20;99.90;;;;;;4974769;28;20082;-73
2022/10/10 10:11:01;;;;;;;3.60;1.67;;;18.40;99.90;;;;;;4966819;28;20088;-71
2022/10/10 10:13:34;;;;;;;9.20;1.83;;;18.00;99.90;;;;;;4973782;28;20023;-72
2022/10/10 10:16:10;;;;;;;3.90;2.08;;;18.40;99.90;;;;;;4988461;28;20037;-70
2022/10/10 10:18:45;;;;;;;3.42;1.70;;;18.80;99.90;;;;;;4972736;28;20027;-70
2022/10/10 10:21:23;;;;;;;6.07;2.03;;;18.60;99.90;;;;;;4972357;28;20039;-73
2022/10/10 10:24:00;;;;;;;3.53;1.98;;;18.80;99.90;;;;;;4973212;28;20038;-73
2022/10/10 10:26:41;;;;;;;3.60;2.25;;;18.70;99.90;;;;;;4972283;28;20031;-71
2022/10/10 10:29:32;;;;;;;4.87;2.13;;;18.90;99.90;;;;;;4973654;28;20033;-73
2022/10/10 10:32:37;;;;;;;3.17;1.45;;;19.10;99.90;;;;;;4973634;28;20114;-73
2022/10/10 10:35:31;;;;;;;5.22;2.20;;;19.50;99.90;;;;;;4973400;28;20067;-74
2022/10/10 10:38:22;;;;;;;3.65;2.03;;;19.30;99.90;;;;;;4973514;28;20031;-73
2022/10/10 10:41:11;;;;;;;7.32;1.52;;;20.00;99.90;;;;;;4972055;28;20037;-72
2022/10/10 10:44:07;;;;;;;11.25;2.65;;;20.30;99.90;;;;;;4971943;28;20039;-74
2022/10/10 10:47:07;;;;;;;5.88;2.08;;;20.30;99.90;;;;;;4972985;28;20039;-73
2022/10/10 10:49:55;;;;;;;3.90;1.85;;;20.00;99.90;;;;;;4973125;28;20050;-73
2022/10/10 10:52:52;;;;;;;6.05;1.90;;;20.00;99.90;;;;;;4951840;28;20045;-73
2022/10/10 10:55:32;;;;;;;3.08;1.83;;;20.30;99.90;;;;;;4991462;28;20069;-73
2022/10/10 10:58:35;;;;;;;8.60;2.42;;;20.50;99.90;;;;;;4991306;28;20030;-74
2022/10/10 11:01:12;;;;;;;5.95;1.83;;;20.40;99.90;;;;;;4992274;28;20034;-73
2022/10/10 11:03:57;;;;;;;3.10;1.77;;;20.50;99.90;;;;;;4993864;28;20034;-74
2022/10/10 11:07:04;;;;;;;9.18;1.55;;;22.20;99.90;;;;;;5009038;28;20088;-74
2022/10/10 11:09:37;;;;;;;7.80;1.77;;;21.20;99.90;;;;;;5011207;28;20073;-73
2022/10/10 11:12:50;;;;;;;2.17;1.17;;;21.90;99.90;;;;;;4994327;28;20065;-72
2022/10/10 11:15:21;;;;;;;4.13;1.42;;;24.10;99.90;;;;;;5010207;28;20034;-72
2022/10/10 11:18:00;;;;;;;7.95;1.70;;;23.30;99.90;;;;;;5010285;28;20033;-74
2022/10/10 11:20:35;;;;;;;5.53;1.27;;;25.00;98.80;;;;;;5010106;28;20037;-74
2022/10/10 11:23:12;;;;;;;15.32;1.40;;;25.30;97.20;;;;;;5011435;28;20486;-73
2022/10/10 11:26:12;;;;;;;8.98;2.17;;;26.10;95.70;;;;;;5010031;28;20034;-74
2022/10/10 11:28:58;;;;;;;3.10;1.38;;;25.50;96.40;;;;;;5011354;28;20022;-74
2022/10/10 11:31:52;;;;;;;7.32;2.63;;;24.50;97.70;;;;;;5006604;28;20038;-72
2022/10/10 11:34:32;;;;;;;4.57;1.45;;;23.90;98.60;;;;;;4991101;28;20038;-72
2022/10/10 11:37:10;;;;;;;8.10;1.60;;;25.70;96.00;;;;;;4991674;28;20080;-74
2022/10/10 11:40:02;;;;;;;4.28;1.52;;;26.00;95.20;;;;;;4990983;28;20090;-73
2022/10/10 11:42:53;;;;;;;8.60;2.10;;;26.60;94.80;;;;;;4991445;28;20513;-73
2022/10/10 11:45:29;;;;;;;7.35;1.52;;;25.30;95.70;;;;;;4990608;28;20113;-73
2022/10/10 11:48:39;;;;;;;13.77;1.55;;;24.70;96.40;;;;;;4990494;28;20034;-73
2022/10/10 11:51:24;;;;;;;5.78;1.90;;;26.70;95.00;;;;;;4983588;28;20042;-73
2022/10/10 11:53:58;;;;;;;2.58;1.08;;;25.20;95.60;;;;;;4990098;28;20034;-73
2022/10/10 11:56:41;;;;;;;7.18;1.50;;;26.40;95.00;;;;;;4990447;28;20113;-73
2022/10/10 11:59:33;;;;;;;8.13;2.03;;;24.80;96.00;;;;;;4990177;28;20050;-73
2022/10/10 12:02:01;;;;;;;15.63;1.95;;;24.10;97.30;;;;;;4989909;28;20093;-73
2022/10/10 12:04:35;;;;;;;4.22;1.17;;;25.50;96.00;;;;;;4973874;28;20026;-75
2022/10/10 12:07:14;;;;;;;2.92;1.83;;;24.50;96.00;;;;;;4973872;28;20458;-54
2022/10/10 12:09:49;;;;;;;8.32;1.20;;;24.00;97.80;;;;;;4990002;28;20068;-49
2022/10/10 12:12:26;;;;;;;4.60;2.00;;;24.50;97.50;;;;;;4990024;28;20058;-50
2022/10/10 12:14:54;;;;;;;4.78;1.10;;;23.80;97.20;;;;;;4974658;28;20034;-49
2022/10/10 12:17:30;;;;;;;3.67;1.27;;;24.70;95.90;;;;;;4981522;28;20034;-53
2022/10/10 12:20:27;;;;;;;8.40;2.05;;;24.50;95.90;;;;;;4971823;28;20121;-52
2022/10/10 12:23:28;;;;;;;5.78;1.52;;;25.20;95.30;;;;;;4971400;28;20034;-47
2022/10/10 12:25:54;;;;;;;3.33;1.17;;;24.10;96.80;;;;;;4970486;28;20038;-54
2022/10/10 12:28:27;;;;;;;5.60;1.60;;;25.30;95.20;;;;;;4971754;28;20035;-54
2022/10/10 12:30:55;;;;;;;7.15;1.50;;;25.30;95.60;;;;;;4971679;28;20027;-53
2022/10/10 12:33:30;;;;;;;12.35;1.58;;;24.80;96.10;;;;;;4990562;28;20030;-55
2022/10/10 12:35:56;;;;;;;3.92;1.20;;;24.50;97.00;;;;;;4990865;28;20038;-51
2022/10/10 12:38:23;;;;;;;4.88;1.38;;;26.10;95.30;;;;;;4990017;28;20026;-54
2022/10/10 12:41:52;;;;;;;4.10;1.23;;;26.10;95.00;;;;;;5006171;28;20070;-79
2022/10/10 12:44:34;;;;;;;8.95;1.55;;;25.50;94.60;;;;;;4911634;29;20040;-78
2022/10/10 12:47:14;;;;;;;2.97;1.10;;;25.50;94.80;;;;;;4991478;28;20038;-77
2022/10/10 12:49:57;;;;;;;;;;;25.30;95.00;;;;;;4995842;28;20045;-77
2022/10/10 12:52:34;;;;;;;3.78;1.63;;;25.10;95.50;;;;;;5006160;28;19918;-78
2022/10/10 12:55:15;;;;;;;5.32;1.23;;;25.30;95.60;;;;;;5014681;28;20478;-76
2022/10/10 12:57:44;;;;;;;4.68;1.05;;;25.90;94.30;;;;;;5013396;28;20454;-76
2022/10/10 13:00:26;;;;;;;2.70;1.25;;;24.10;96.00;;;;;;5013218;28;20095;-76
2022/10/10 13:03:08;;;;;;;7.32;2.05;;;24.40;96.30;;;;;;4998787;28;20494;-76
2022/10/10 13:05:38;;;;;;;10.52;1.83;;;25.40;95.60;;;;;;4993469;28;20037;-76
2022/10/10 13:08:15;;;;;;;5.65;2.33;;;25.60;94.80;;;;;;4977631;28;20027;-76
2022/10/10 13:10:41;;;;;;;5.45;2.08;;;27.30;93.90;;;;;;4993164;28;20046;-76
2022/10/10 13:13:19;;;;;;;11.18;1.73;;;25.30;95.60;;;;;;4993027;28;20027;-76
2022/10/10 13:15:58;;;;;;;8.75;1.90;;;25.40;95.10;;;;;;4993152;28;20097;-77
2022/10/10 13:18:54;;;;;;;10.50;1.48;;;25.80;95.10;;;;;;4993576;28;20037;-78
2022/10/10 13:21:33;;;;;;;8.13;1.20;;;26.00;94.80;;;;;;4994378;28;20043;-79
2022/10/10 13:24:03;;;;;;;5.88;1.85;;;26.50;94.10;;;;;;4994205;28;20038;-76